Wilmington International Airport
KILM : rendu visible

Aérodrome :











RETROUVEZ-NOUS SUR...

 
LOGIN :

S'inscrire | Disclaimer

   EN    FR    IT 

 









Légende :    VFR   VFR Marginal   IFR   IFR Intensif   IFR Très Intensif
Visi : 
Plafond : 
>= 8 km
>= 3000ft
5 à 8 km
1000 à 3000 ft
1500m à 5 km
500 à 1000 ft
800 à 1500m
200 à 500 ft
< 800m
< 200 ft
Symboles :   Orages  Brouillard  Fortes neiges  Fortes précipitations  Vent > 20 kt






- Altitude de l'aérodrome : 32 ft
- Code IATA : ILM


KILM - Wilmington International

DERNIER METAR :
  • 120953Z 00000KT 10SM CLR 15/13 A2992 RMK AO2 SLP132 T01500133

METARs EXPIRÉS :
  • 120853Z 23003KT 10SM SCT048 17/13 A2994 RMK AO2 SLP139 T01670133 58024
  • 120753Z 21003KT 10SM FEW050 17/13 A2997 RMK AO2 SLP148 T01720128

TAF KILM
Valide du 12 à 06h jusqu'au 13 à 06h UTC


120523Z 1206/1306 22004KT P6SM BKN250
FM121500 27005KT P6SM BKN150
FM121800 32011KT P6SM OVC029
FM122100 35014G27KT 5SM RA OVC011
FM130000 35012G27KT P6SM OVC023
FM130300 35012G26KT P6SM BKN070



MET'MAP, la Météo Aéronautique d'un coup d'oeil ! - Copyright ORBIFLY Décembre 2007 - Disclaimer

ORBIFLY MET'MAP TEAM :

Programmation & Développement : Alexandra Zaïnal
Conception & Développement : Baudouin d'Aumeries
Co-Programmation & Développement : Marc-Olivier Méhu
Soutien technique & logistique : Manuel Goepfert

Contact : metmap@orbifly.com




SOURCES & CREDITS :

   NOAA       Earth
Advisory